Time;durP1;ratioP1;P1;durP2;ratioP2;P2;SDS_P1;SDS_P2;PMS_P1;PMS_P2;Temp;Humidity;BMP_temperature;BMP_pressure;BME280_temperature;BME280_humidity;BME280_pressure;Samples;Min_cycle;Max_cycle;Signal;HPM_P1;HPM_P2
2021/08/01 00:00:22;;;;;;;25.27;14.13;;;;;;;;;;5097452;28;20074;-83
2021/08/01 00:02:48;;;;;;;27.30;14.13;;;;;;;;;;5098690;28;20351;-82
2021/08/01 00:05:14;;;;;;;29.52;14.30;;;;;;;;;;5098520;28;20064;-83
2021/08/01 00:07:40;;;;;;;23.60;12.70;;;;;;;;;;5098405;28;20322;-82
2021/08/01 00:10:08;;;;;;;23.98;12.98;;;;;;;;;;5098342;28;20024;-81
2021/08/01 00:12:34;;;;;;;28.83;13.45;;;;;;;;;;5098310;28;20408;-83
2021/08/01 00:15:01;;;;;;;26.55;12.80;;;;;;;;;;5097448;28;20318;-82
2021/08/01 00:17:27;;;;;;;22.02;11.23;;;;;;;;;;5098198;28;20024;-82
2021/08/01 00:19:53;;;;;;;21.30;12.48;;;;;;;;;;5097129;28;20034;-82
2021/08/01 00:22:20;;;;;;;26.25;12.35;;;;;;;;;;5098161;28;20020;-81
2021/08/01 00:24:46;;;;;;;17.45;10.10;;;;;;;;;;5098151;28;20388;-82
2021/08/01 00:27:12;;;;;;;15.23;9.13;;;;;;;;;;5098146;28;20074;-82
2021/08/01 00:29:38;;;;;;;15.20;8.63;;;;;;;;;;5097062;28;20082;-82
2021/08/01 00:32:05;;;;;;;14.20;8.32;;;;;;;;;;5098191;28;20028;-82
2021/08/01 00:34:31;;;;;;;22.30;10.40;;;;;;;;;;5098165;28;20020;-82
2021/08/01 00:36:57;;;;;;;19.50;10.57;;;;;;;;;;5096782;28;20020;-82
2021/08/01 00:39:24;;;;;;;18.70;8.75;;;;;;;;;;5098074;28;20051;-82
2021/08/01 00:41:50;;;;;;;11.57;7.80;;;;;;;;;;5096434;28;20032;-82
2021/08/01 00:44:16;;;;;;;13.20;7.95;;;;;;;;;;5097354;28;20028;-82
2021/08/01 00:46:45;;;;;;;12.52;8.18;;;;;;;;;;5096680;28;20512;-82
2021/08/01 00:49:11;;;;;;;11.90;7.82;;;;;;;;;;5097737;28;20024;-82
2021/08/01 00:51:37;;;;;;;21.55;9.82;;;;;;;;;;5096877;28;20073;-82
2021/08/01 00:54:03;;;;;;;18.45;9.70;;;;;;;;;;5097731;28;20024;-81
2021/08/01 00:56:32;;;;;;;14.13;8.57;;;;;;;;;;5096479;28;20118;-81
2021/08/01 00:58:58;;;;;;;13.23;8.00;;;;;;;;;;5097451;28;20076;-81
2021/08/01 01:01:30;;;;;;;10.95;6.90;;;;;;;;;;5097575;28;20065;-81
2021/08/01 01:04:00;;;;;;;11.73;8.40;;;;;;;;;;5097465;28;20115;-81
2021/08/01 01:06:32;;;;;;;14.00;8.60;;;;;;;;;;5097488;28;20051;-82
2021/08/01 01:09:04;;;;;;;17.50;9.75;;;;;;;;;;5097443;28;20025;-82
2021/08/01 01:11:34;;;;;;;20.27;10.23;;;;;;;;;;5096127;28;20020;-82
2021/08/01 01:14:01;;;;;;;14.77;8.80;;;;;;;;;;5096375;28;20069;-82
2021/08/01 01:16:30;;;;;;;14.60;7.57;;;;;;;;;;5096411;28;20064;-82
2021/08/01 01:18:59;;;;;;;12.13;7.80;;;;;;;;;;5096223;28;20039;-82
2021/08/01 01:21:43;;;;;;;12.45;7.82;;;;;;;;;;5097220;28;20024;-81
2021/08/01 01:24:14;;;;;;;14.13;8.25;;;;;;;;;;5097121;28;20112;-82
2021/08/01 01:26:43;;;;;;;12.73;8.07;;;;;;;;;;5097136;28;20336;-82
2021/08/01 01:29:14;;;;;;;9.55;7.28;;;;;;;;;;5096484;28;20140;-84
2021/08/01 01:31:49;;;;;;;11.60;6.85;;;;;;;;;;5095976;28;20055;-83
2021/08/01 01:34:34;;;;;;;11.18;6.13;;;;;;;;;;5096240;28;20028;-83
2021/08/01 01:37:02;;;;;;;10.95;6.70;;;;;;;;;;5097428;28;20016;-83
2021/08/01 01:39:30;;;;;;;10.32;6.30;;;;;;;;;;5096184;28;20149;-83
2021/08/01 01:41:57;;;;;;;7.30;5.65;;;;;;;;;;5096797;28;20032;-83
2021/08/01 01:44:24;;;;;;;10.43;6.63;;;;;;;;;;5097316;28;20354;-83
2021/08/01 01:46:50;;;;;;;10.07;6.28;;;;;;;;;;5097193;28;20024;-83
2021/08/01 01:49:17;;;;;;;8.77;5.95;;;;;;;;;;5097081;28;20035;-83
2021/08/01 01:51:44;;;;;;;10.13;5.95;;;;;;;;;;5097140;28;20047;-83
2021/08/01 01:54:10;;;;;;;8.88;6.25;;;;;;;;;;5097182;28;20020;-83
2021/08/01 01:56:38;;;;;;;12.32;7.95;;;;;;;;;;5097000;28;20031;-83
2021/08/01 01:59:04;;;;;;;9.73;6.80;;;;;;;;;;5096809;28;20054;-83
2021/08/01 02:01:30;;;;;;;10.93;7.82;;;;;;;;;;5096993;28;20027;-83
2021/08/01 02:03:56;;;;;;;10.75;7.75;;;;;;;;;;5099753;28;20024;-84
2021/08/01 02:06:22;;;;;;;14.18;7.60;;;;;;;;;;5100877;28;20027;-83
2021/08/01 02:08:57;;;;;;;12.40;7.63;;;;;;;;;;5100805;28;20024;-83
2021/08/01 02:11:25;;;;;;;11.43;7.20;;;;;;;;;;5100783;28;20039;-81
2021/08/01 02:13:56;;;;;;;7.43;6.35;;;;;;;;;;5100668;28;20024;-82
2021/08/01 02:16:27;;;;;;;8.15;5.45;;;;;;;;;;5099542;28;20432;-81
2021/08/01 02:18:55;;;;;;;7.05;6.13;;;;;;;;;;5100759;28;20035;-81
2021/08/01 02:21:21;;;;;;;9.75;6.35;;;;;;;;;;5100354;28;20314;-80
2021/08/01 02:23:48;;;;;;;10.02;6.25;;;;;;;;;;5099380;28;20401;-80
2021/08/01 02:26:17;;;;;;;12.85;6.63;;;;;;;;;;5100538;28;20027;-81
2021/08/01 02:28:44;;;;;;;8.13;6.40;;;;;;;;;;5100310;28;20414;-82
2021/08/01 02:31:10;;;;;;;7.22;6.07;;;;;;;;;;5099918;28;20090;-84
2021/08/01 02:33:37;;;;;;;9.35;6.05;;;;;;;;;;5100245;28;20024;-83
2021/08/01 02:36:04;;;;;;;9.73;6.15;;;;;;;;;;5100348;28;20295;-83
2021/08/01 02:38:31;;;;;;;7.78;6.63;;;;;;;;;;5100420;28;20024;-84
2021/08/01 02:40:58;;;;;;;10.55;6.55;;;;;;;;;;5100186;28;20042;-82
2021/08/01 02:43:26;;;;;;;12.65;7.00;;;;;;;;;;5099926;28;20016;-83
2021/08/01 02:45:53;;;;;;;11.15;7.18;;;;;;;;;;5100016;28;20020;-82
2021/08/01 02:48:21;;;;;;;7.82;7.03;;;;;;;;;;5099821;28;20056;-82
2021/08/01 02:50:50;;;;;;;12.60;6.57;;;;;;;;;;5100004;28;20105;-82
2021/08/01 02:53:17;;;;;;;12.93;6.85;;;;;;;;;;5099807;28;20032;-82
2021/08/01 02:55:44;;;;;;;6.93;6.15;;;;;;;;;;5099913;28;20138;-82
2021/08/01 02:58:10;;;;;;;9.55;6.57;;;;;;;;;;5099712;28;20204;-83
2021/08/01 03:00:37;;;;;;;9.27;6.35;;;;;;;;;;5099836;28;20184;-83
2021/08/01 03:03:05;;;;;;;8.07;6.20;;;;;;;;;;5099757;28;20032;-83
2021/08/01 03:05:31;;;;;;;10.27;6.38;;;;;;;;;;5099876;28;20104;-83
2021/08/01 03:07:57;;;;;;;8.90;6.13;;;;;;;;;;5098749;28;20071;-83
2021/08/01 03:10:23;;;;;;;9.35;5.88;;;;;;;;;;5099529;28;20401;-83
2021/08/01 03:12:50;;;;;;;8.40;6.28;;;;;;;;;;5099637;28;20107;-83
2021/08/01 03:15:17;;;;;;;9.50;5.88;;;;;;;;;;5099493;28;20047;-83
2021/08/01 03:17:43;;;;;;;7.20;5.55;;;;;;;;;;5099229;28;20032;-83
2021/08/01 03:20:10;;;;;;;9.00;5.85;;;;;;;;;;5099276;28;20059;-83
2021/08/01 03:22:36;;;;;;;8.32;5.78;;;;;;;;;;5098230;28;20024;-83
2021/08/01 03:25:03;;;;;;;9.20;6.03;;;;;;;;;;5098212;28;20012;-83
2021/08/01 03:27:29;;;;;;;10.35;6.25;;;;;;;;;;5099229;28;20036;-83
2021/08/01 03:29:55;;;;;;;10.13;6.18;;;;;;;;;;5097920;28;20039;-82
2021/08/01 03:32:22;;;;;;;9.98;5.88;;;;;;;;;;5099023;28;20047;-82
2021/08/01 03:34:49;;;;;;;12.52;6.93;;;;;;;;;;5099172;28;20027;-81
2021/08/01 03:37:15;;;;;;;15.20;6.03;;;;;;;;;;5098937;28;20430;-81
2021/08/01 03:50:20;;;;;;;10.05;5.80;;;;;;;;;;5135323;27;20470;-82
2021/08/01 03:52:46;;;;;;;11.27;6.15;;;;;;;;;;5117347;28;20034;-82
2021/08/01 03:55:12;;;;;;;10.38;5.75;;;;;;;;;;5116890;28;20350;-83
2021/08/01 03:57:38;;;;;;;8.00;5.22;;;;;;;;;;5135096;28;20046;-82
2021/08/01 04:00:08;;;;;;;7.47;5.18;;;;;;;;;;5116423;28;20034;-82
2021/08/01 04:02:35;;;;;;;7.90;5.45;;;;;;;;;;5135258;28;20431;-82
2021/08/01 04:05:01;;;;;;;6.97;5.25;;;;;;;;;;5116891;28;20323;-82
2021/08/01 04:07:27;;;;;;;6.93;5.15;;;;;;;;;;5135025;28;20023;-81
2021/08/01 04:09:53;;;;;;;17.05;11.20;;;;;;;;;;5134931;28;20078;-82
2021/08/01 04:12:21;;;;;;;9.85;7.15;;;;;;;;;;5116982;28;20289;-82
2021/08/01 04:14:47;;;;;;;9.68;7.20;;;;;;;;;;5116765;28;20301;-83
2021/08/01 04:17:13;;;;;;;12.23;7.30;;;;;;;;;;5134774;28;20397;-80
2021/08/01 04:19:39;;;;;;;8.48;6.38;;;;;;;;;;5134652;28;20071;-80
2021/08/01 04:22:05;;;;;;;8.48;5.40;;;;;;;;;;5134853;28;20026;-80
2021/08/01 04:24:31;;;;;;;11.05;5.40;;;;;;;;;;5116154;28;20073;-80
2021/08/01 04:26:58;;;;;;;6.75;5.47;;;;;;;;;;5134696;28;20019;-80
2021/08/01 04:29:24;;;;;;;11.57;5.75;;;;;;;;;;5116453;28;20045;-80
2021/08/01 04:31:50;;;;;;;20.08;12.32;;;;;;;;;;5134271;28;20055;-80
2021/08/01 04:34:16;;;;;;;24.40;13.23;;;;;;;;;;5134420;28;20019;-80
2021/08/01 04:36:43;;;;;;;12.13;6.55;;;;;;;;;;5134503;28;20035;-80
2021/08/01 04:39:09;;;;;;;9.70;6.88;;;;;;;;;;5134301;28;20073;-80
2021/08/01 04:41:35;;;;;;;14.40;10.52;;;;;;;;;;5134389;28;20035;-79
2021/08/01 04:44:01;;;;;;;20.27;14.43;;;;;;;;;;5134292;28;20031;-80
2021/08/01 04:46:27;;;;;;;33.47;26.48;;;;;;;;;;5115075;28;20065;-81
2021/08/01 04:48:53;;;;;;;18.88;11.73;;;;;;;;;;5125113;28;20056;-80
2021/08/01 04:51:19;;;;;;;17.33;12.00;;;;;;;;;;5099542;28;20028;-80
2021/08/01 04:53:46;;;;;;;8.48;6.85;;;;;;;;;;5100042;28;20024;-80
2021/08/01 04:56:12;;;;;;;29.40;17.60;;;;;;;;;;5099817;28;20024;-79
2021/08/01 04:58:39;;;;;;;39.03;27.30;;;;;;;;;;5099984;28;20031;-78
2021/08/01 05:01:14;;;;;;;12.30;9.20;;;;;;;;;;5099998;28;20027;-79
2021/08/01 05:03:40;;;;;;;31.58;24.05;;;;;;;;;;5099747;28;20024;-79
2021/08/01 05:06:06;;;;;;;17.92;12.68;;;;;;;;;;5081913;28;20075;-79
2021/08/01 05:08:32;;;;;;;22.50;14.52;;;;;;;;;;5099776;28;20020;-79
2021/08/01 05:10:58;;;;;;;43.58;33.85;;;;;;;;;;5099488;28;20020;-79
2021/08/01 05:13:25;;;;;;;28.40;22.08;;;;;;;;;;5099625;28;20020;-79
2021/08/01 05:15:51;;;;;;;10.68;9.38;;;;;;;;;;5099579;28;20123;-79
2021/08/01 05:18:17;;;;;;;12.30;7.97;;;;;;;;;;5099558;28;20024;-79
2021/08/01 05:20:43;;;;;;;9.65;5.88;;;;;;;;;;5099596;28;20029;-79
2021/08/01 05:23:10;;;;;;;13.95;8.65;;;;;;;;;;5099394;28;20122;-80
2021/08/01 05:25:36;;;;;;;8.25;6.22;;;;;;;;;;5099551;28;20020;-80
2021/08/01 05:28:02;;;;;;;12.05;7.63;;;;;;;;;;5099573;28;20044;-79
2021/08/01 05:30:28;;;;;;;9.02;6.47;;;;;;;;;;5099467;28;20020;-80
2021/08/01 05:32:54;;;;;;;8.40;6.18;;;;;;;;;;5099200;28;20097;-80
2021/08/01 05:35:20;;;;;;;6.50;5.70;;;;;;;;;;5099132;28;20020;-80
2021/08/01 05:37:46;;;;;;;13.88;6.25;;;;;;;;;;5099063;28;20024;-79
2021/08/01 05:40:13;;;;;;;8.20;5.50;;;;;;;;;;5099027;28;20024;-79
2021/08/01 05:42:39;;;;;;;7.78;6.05;;;;;;;;;;5099259;28;20410;-80
2021/08/01 05:45:06;;;;;;;9.82;6.18;;;;;;;;;;5099274;28;20112;-79
2021/08/01 05:47:32;;;;;;;9.93;6.13;;;;;;;;;;5098913;28;20047;-79
2021/08/01 05:49:58;;;;;;;11.00;6.35;;;;;;;;;;5098502;28;20456;-79
2021/08/01 05:52:24;;;;;;;11.80;5.70;;;;;;;;;;5099057;28;20309;-80
2021/08/01 05:54:53;;;;;;;10.15;5.75;;;;;;;;;;5098796;28;20046;-79
2021/08/01 05:57:20;;;;;;;11.88;6.40;;;;;;;;;;5098726;28;20074;-78
2021/08/01 05:59:46;;;;;;;13.30;6.55;;;;;;;;;;5098917;28;20028;-80
2021/08/01 06:02:12;;;;;;;10.95;6.75;;;;;;;;;;5097804;28;20023;-80
2021/08/01 06:04:38;;;;;;;10.20;6.50;;;;;;;;;;5098613;28;20020;-80
2021/08/01 06:07:06;;;;;;;9.93;6.22;;;;;;;;;;5098633;28;20112;-80
2021/08/01 06:09:32;;;;;;;9.45;6.28;;;;;;;;;;5079877;28;20353;-79
2021/08/01 06:11:58;;;;;;;6.97;5.75;;;;;;;;;;5098439;28;20035;-80
2021/08/01 06:14:24;;;;;;;10.25;6.00;;;;;;;;;;5098411;28;20051;-79
2021/08/01 06:16:50;;;;;;;9.45;6.30;;;;;;;;;;5098613;28;20020;-79
2021/08/01 06:19:16;;;;;;;11.27;6.18;;;;;;;;;;5098487;28;20028;-79
2021/08/01 06:21:42;;;;;;;11.02;5.57;;;;;;;;;;5098498;28;20306;-79
2021/08/01 06:24:09;;;;;;;7.60;5.78;;;;;;;;;;5097896;28;20317;-78
2021/08/01 06:26:35;;;;;;;10.88;5.90;;;;;;;;;;5079564;28;20032;-78
2021/08/01 06:29:01;;;;;;;8.85;5.97;;;;;;;;;;5098116;28;20031;-78
2021/08/01 06:31:27;;;;;;;8.98;6.43;;;;;;;;;;5098234;28;20024;-78
2021/08/01 06:33:53;;;;;;;10.18;6.45;;;;;;;;;;5098047;28;20062;-79
2021/08/01 06:36:19;;;;;;;11.40;6.20;;;;;;;;;;5098034;28;20552;-78
2021/08/01 06:38:46;;;;;;;9.73;6.10;;;;;;;;;;5097890;28;20082;-78
2021/08/01 06:41:12;;;;;;;12.35;7.03;;;;;;;;;;5097964;28;20050;-78
2021/08/01 06:43:38;;;;;;;8.63;6.22;;;;;;;;;;5097866;28;20020;-79
2021/08/01 06:46:04;;;;;;;9.73;6.63;;;;;;;;;;5079223;28;20051;-79
2021/08/01 06:48:30;;;;;;;14.32;6.65;;;;;;;;;;5079581;28;20337;-78
2021/08/01 06:50:57;;;;;;;8.93;6.47;;;;;;;;;;5097526;28;20035;-78
2021/08/01 06:53:23;;;;;;;8.55;6.00;;;;;;;;;;5096335;28;20409;-78
2021/08/01 06:55:49;;;;;;;13.65;6.63;;;;;;;;;;5097177;28;20028;-80
2021/08/01 06:58:18;;;;;;;8.75;6.38;;;;;;;;;;5097778;28;20031;-79
2021/08/01 07:00:48;;;;;;;15.43;8.73;;;;;;;;;;5097158;28;20020;-80
2021/08/01 07:03:14;;;;;;;12.27;6.93;;;;;;;;;;5097149;28;20020;-81
2021/08/01 07:05:40;;;;;;;11.50;6.78;;;;;;;;;;5087016;28;20302;-81
2021/08/01 07:08:07;;;;;;;10.02;6.75;;;;;;;;;;5097494;28;20028;-81
2021/08/01 07:10:33;;;;;;;10.32;7.35;;;;;;;;;;5079584;28;20051;-79
2021/08/01 07:13:06;;;;;;;11.73;7.22;;;;;;;;;;5097208;28;20024;-79
2021/08/01 07:15:32;;;;;;;18.15;9.63;;;;;;;;;;5097556;28;20082;-80
2021/08/01 07:17:59;;;;;;;18.38;10.20;;;;;;;;;;5078698;28;20028;-79
2021/08/01 07:20:25;;;;;;;10.23;7.45;;;;;;;;;;5097053;28;20074;-78
2021/08/01 07:22:51;;;;;;;12.13;7.82;;;;;;;;;;5097364;28;20099;-79
2021/08/01 07:25:18;;;;;;;14.27;7.85;;;;;;;;;;5097242;28;20107;-79
2021/08/01 07:27:44;;;;;;;12.65;7.65;;;;;;;;;;5079581;28;20039;-78
2021/08/01 07:30:10;;;;;;;10.98;7.38;;;;;;;;;;5097220;28;20024;-78
2021/08/01 07:32:37;;;;;;;11.40;6.72;;;;;;;;;;5097203;28;20020;-79
2021/08/01 07:35:03;;;;;;;10.45;6.68;;;;;;;;;;5079257;28;20024;-78
2021/08/01 07:37:29;;;;;;;12.75;7.43;;;;;;;;;;5097168;28;20024;-79
2021/08/01 07:39:55;;;;;;;12.25;7.45;;;;;;;;;;5096790;28;20122;-79
2021/08/01 07:42:21;;;;;;;10.15;7.30;;;;;;;;;;5096764;28;20087;-79
2021/08/01 07:45:01;;;;;;;12.77;7.45;;;;;;;;;;5096991;28;20024;-78
2021/08/01 07:47:27;;;;;;;10.57;7.03;;;;;;;;;;5096947;28;20012;-78
2021/08/01 07:49:53;;;;;;;14.13;7.25;;;;;;;;;;5096799;28;20048;-80
2021/08/01 07:52:20;;;;;;;11.55;7.18;;;;;;;;;;5096375;28;20039;-80
2021/08/01 07:54:47;;;;;;;8.63;7.18;;;;;;;;;;5078091;28;20094;-79
2021/08/01 07:57:26;;;;;;;8.40;6.75;;;;;;;;;;5096756;28;20425;-80
2021/08/01 07:59:53;;;;;;;9.73;6.63;;;;;;;;;;5096800;28;20106;-80
2021/08/01 08:02:20;;;;;;;7.82;6.40;;;;;;;;;;5096973;28;20610;-80
2021/08/01 08:04:46;;;;;;;9.18;6.43;;;;;;;;;;5097028;28;20028;-80
2021/08/01 08:07:12;;;;;;;9.07;6.45;;;;;;;;;;5094920;28;20130;-79
2021/08/01 08:09:38;;;;;;;11.68;6.85;;;;;;;;;;5112060;28;20036;-79
2021/08/01 08:12:05;;;;;;;10.50;7.00;;;;;;;;;;5089646;28;20036;-79
2021/08/01 08:14:31;;;;;;;14.32;7.15;;;;;;;;;;5102249;28;20058;-80
2021/08/01 08:16:58;;;;;;;11.40;7.00;;;;;;;;;;5096658;28;20050;-79
2021/08/01 08:19:24;;;;;;;12.88;7.10;;;;;;;;;;5096887;28;20040;-79
2021/08/01 08:21:50;;;;;;;11.90;6.85;;;;;;;;;;5096688;28;20024;-79
2021/08/01 08:24:16;;;;;;;11.30;7.70;;;;;;;;;;5096552;28;20336;-79
2021/08/01 08:26:42;;;;;;;10.90;7.03;;;;;;;;;;5100604;28;20211;-79
2021/08/01 08:29:08;;;;;;;27.05;8.05;;;;;;;;;;5099449;28;20024;-79
2021/08/01 08:31:34;;;;;;;13.10;7.70;;;;;;;;;;5100217;28;20032;-78
2021/08/01 08:34:00;;;;;;;23.48;11.32;;;;;;;;;;5100503;28;20024;-78
2021/08/01 08:36:26;;;;;;;15.55;10.63;;;;;;;;;;5100330;28;20050;-79
2021/08/01 08:38:52;;;;;;;17.65;10.63;;;;;;;;;;5100225;28;20063;-78
2021/08/01 08:41:20;;;;;;;13.07;11.52;;;;;;;;;;5100193;28;20028;-80
2021/08/01 08:43:47;;;;;;;13.90;10.15;;;;;;;;;;5100331;28;20138;-79
2021/08/01 08:46:13;;;;;;;10.45;7.75;;;;;;;;;;5100039;28;20020;-80
2021/08/01 08:48:40;;;;;;;15.85;9.65;;;;;;;;;;5099756;28;20048;-80
2021/08/01 08:51:10;;;;;;;11.05;7.82;;;;;;;;;;5099109;28;20028;-80
2021/08/01 08:53:39;;;;;;;15.13;11.30;;;;;;;;;;5098421;28;20426;-80
2021/08/01 08:56:06;;;;;;;10.68;8.32;;;;;;;;;;5100000;28;20066;-80
2021/08/01 08:58:33;;;;;;;13.05;8.10;;;;;;;;;;5100075;28;20024;-80
2021/08/01 09:00:59;;;;;;;18.00;8.80;;;;;;;;;;5100108;28;20024;-80
2021/08/01 09:03:25;;;;;;;11.52;8.45;;;;;;;;;;5099918;28;20020;-80
2021/08/01 09:05:56;;;;;;;12.48;10.32;;;;;;;;;;5098032;28;20028;-80
2021/08/01 09:08:24;;;;;;;13.35;11.40;;;;;;;;;;5099625;28;20081;-80
2021/08/01 09:10:50;;;;;;;20.98;12.95;;;;;;;;;;5099891;28;20036;-80
2021/08/01 09:13:36;;;;;;;18.52;13.38;;;;;;;;;;5064514;28;20084;-80
2021/08/01 09:16:02;;;;;;;18.38;14.88;;;;;;;;;;5099452;28;20317;-79
2021/08/01 09:18:33;;;;;;;14.80;10.88;;;;;;;;;;5098513;28;20028;-80
2021/08/01 09:20:59;;;;;;;12.25;10.43;;;;;;;;;;5099543;28;20028;-79
2021/08/01 09:23:25;;;;;;;19.45;13.00;;;;;;;;;;5099049;28;20016;-80
2021/08/01 09:25:58;;;;;;;16.13;12.98;;;;;;;;;;5099103;28;20111;-79
2021/08/01 09:28:25;;;;;;;14.57;10.18;;;;;;;;;;5115269;28;20034;-80
2021/08/01 09:30:55;;;;;;;11.52;7.90;;;;;;;;;;5094664;28;20028;-79
2021/08/01 09:33:42;;;;;;;11.05;9.40;;;;;;;;;;5098946;28;20016;-78
2021/08/01 09:36:14;;;;;;;10.77;8.95;;;;;;;;;;5098929;28;20055;-79
2021/08/01 09:38:50;;;;;;;10.05;8.32;;;;;;;;;;5099013;28;20427;-79
2021/08/01 09:41:23;;;;;;;13.38;8.77;;;;;;;;;;5099075;28;20047;-78
2021/08/01 09:43:52;;;;;;;15.60;11.25;;;;;;;;;;5099040;28;20016;-79
2021/08/01 09:46:19;;;;;;;43.17;27.40;;;;;;;;;;5099069;28;20455;-79
2021/08/01 09:48:46;;;;;;;16.95;11.55;;;;;;;;;;5098383;28;20044;-79
2021/08/01 09:51:13;;;;;;;16.67;11.18;;;;;;;;;;5098874;28;20024;-79
2021/08/01 09:53:40;;;;;;;47.72;24.50;;;;;;;;;;5098542;28;20024;-81
2021/08/01 09:56:19;;;;;;;48.40;27.30;;;;;;;;;;5098666;28;20032;-80
2021/08/01 09:58:46;;;;;;;30.90;21.38;;;;;;;;;;5097825;28;20027;-80
2021/08/01 10:01:13;;;;;;;18.20;10.50;;;;;;;;;;5114224;28;20036;-79
2021/08/01 10:03:43;;;;;;;19.77;11.35;;;;;;;;;;5098449;28;20016;-80
2021/08/01 10:06:10;;;;;;;19.80;10.00;;;;;;;;;;5098514;28;20028;-82
2021/08/01 10:08:40;;;;;;;14.98;10.35;;;;;;;;;;5098568;28;20032;-82
2021/08/01 10:11:14;;;;;;;19.35;12.52;;;;;;;;;;5097955;28;20093;-80
2021/08/01 10:13:41;;;;;;;17.27;10.00;;;;;;;;;;5079345;28;20071;-82
2021/08/01 10:16:08;;;;;;;22.02;13.13;;;;;;;;;;5098397;28;20020;-83
2021/08/01 10:18:35;;;;;;;32.88;21.95;;;;;;;;;;5098579;28;20340;-82
2021/08/01 10:21:01;;;;;;;52.55;35.58;;;;;;;;;;5098249;28;20528;-80
2021/08/01 10:23:27;;;;;;;61.08;41.85;;;;;;;;;;5079669;28;20307;-80
2021/08/01 10:25:55;;;;;;;106.95;75.63;;;;;;;;;;5098323;28;20099;-81
2021/08/01 10:28:23;;;;;;;143.98;95.22;;;;;;;;;;5098488;28;20091;-81
2021/08/01 10:30:51;;;;;;;148.07;85.60;;;;;;;;;;5098049;28;20024;-81
2021/08/01 10:33:22;;;;;;;203.35;111.93;;;;;;;;;;5097864;28;20445;-80
2021/08/01 10:35:57;;;;;;;115.40;64.85;;;;;;;;;;5080066;28;20028;-82
2021/08/01 10:38:24;;;;;;;111.75;68.70;;;;;;;;;;5080038;28;20371;-82
2021/08/01 10:40:54;;;;;;;199.05;115.85;;;;;;;;;;5098154;28;20027;-82
2021/08/01 10:43:27;;;;;;;92.53;56.08;;;;;;;;;;5097994;28;20110;-81
2021/08/01 10:45:53;;;;;;;90.72;53.50;;;;;;;;;;5098057;28;20035;-81
2021/08/01 10:48:23;;;;;;;68.68;39.13;;;;;;;;;;5097378;28;20090;-81
2021/08/01 10:50:49;;;;;;;64.13;36.17;;;;;;;;;;5098124;28;20032;-82
2021/08/01 10:53:22;;;;;;;63.15;37.13;;;;;;;;;;5097876;28;20070;-81
2021/08/01 10:56:11;;;;;;;56.70;35.03;;;;;;;;;;5097737;28;20043;-82
2021/08/01 10:58:38;;;;;;;25.58;16.23;;;;;;;;;;5015984;28;20197;-81
2021/08/01 11:01:04;;;;;;;22.90;12.00;;;;;;;;;;5015888;28;20399;-82
2021/08/01 11:03:32;;;;;;;16.90;10.27;;;;;;;;;;5015980;28;20446;-82
2021/08/01 11:05:58;;;;;;;15.82;7.82;;;;;;;;;;5015749;28;20018;-81
2021/08/01 11:08:45;;;;;;;13.27;7.40;;;;;;;;;;5014011;28;20030;-81
2021/08/01 11:11:16;;;;;;;14.07;7.80;;;;;;;;;;5015574;28;20045;-82
2021/08/01 11:13:42;;;;;;;;;;;;;;;;;;4999784;28;20036;-80
2021/08/01 11:16:09;;;;;;;15.10;6.85;;;;;;;;;;5031320;28;19944;-81
2021/08/01 11:18:43;;;;;;;13.07;6.32;;;;;;;;;;4998437;28;20471;-82
2021/08/01 11:21:09;;;;;;;15.55;6.68;;;;;;;;;;5014493;28;20026;-83
2021/08/01 11:23:47;;;;;;;11.85;6.13;;;;;;;;;;5015371;28;20120;-83
2021/08/01 11:26:17;;;;;;;14.27;5.38;;;;;;;;;;5015705;28;20030;-83
2021/08/01 11:28:44;;;;;;;14.80;5.23;;;;;;;;;;5015749;28;20070;-84
2021/08/01 11:31:19;;;;;;;10.27;5.10;;;;;;;;;;4998945;28;20259;-84
2021/08/01 11:33:46;;;;;;;11.07;5.38;;;;;;;;;;5015567;28;20113;-84
2021/08/01 11:36:17;;;;;;;10.75;5.78;;;;;;;;;;5076193;28;20081;-83
2021/08/01 11:38:53;;;;;;;14.55;6.13;;;;;;;;;;5079325;28;20082;-84
2021/08/01 11:41:35;;;;;;;9.73;5.25;;;;;;;;;;5097553;28;20024;-84
2021/08/01 11:44:05;;;;;;;14.32;5.32;;;;;;;;;;5079517;28;20044;-84
2021/08/01 11:46:56;;;;;;;12.13;5.28;;;;;;;;;;5097175;28;20021;-84
2021/08/01 11:49:23;;;;;;;8.60;5.68;;;;;;;;;;5096705;28;20138;-83
2021/08/01 11:51:51;;;;;;;12.52;5.82;;;;;;;;;;5097352;28;20543;-83
2021/08/01 11:54:18;;;;;;;14.18;5.50;;;;;;;;;;5096826;28;20029;-84
2021/08/01 11:56:45;;;;;;;13.88;5.32;;;;;;;;;;5097075;28;20024;-83
2021/08/01 11:59:15;;;;;;;11.27;5.72;;;;;;;;;;5078878;28;20122;-84
2021/08/01 12:01:41;;;;;;;15.23;6.28;;;;;;;;;;5082950;28;20329;-83
2021/08/01 12:04:08;;;;;;;15.57;6.03;;;;;;;;;;5101070;28;20356;-84
2021/08/01 12:06:34;;;;;;;14.40;6.07;;;;;;;;;;5101026;28;20016;-84
2021/08/01 12:09:15;;;;;;;9.70;5.03;;;;;;;;;;5101229;28;20035;-84
2021/08/01 12:11:41;;;;;;;;;;;;;;;;;;5083375;28;20036;-84
2021/08/01 12:14:11;;;;;;;14.65;7.72;;;;;;;;;;5101255;28;19904;-85
2021/08/01 12:16:38;;;;;;;13.93;5.85;;;;;;;;;;5083437;28;20032;-84
2021/08/01 12:19:17;;;;;;;9.88;5.65;;;;;;;;;;5101099;28;20043;-83
2021/08/01 12:21:43;;;;;;;14.00;5.32;;;;;;;;;;5083062;28;20024;-83
2021/08/01 12:24:28;;;;;;;17.30;5.68;;;;;;;;;;5100546;28;20073;-83
2021/08/01 12:26:59;;;;;;;11.32;5.63;;;;;;;;;;5082891;28;20020;-84
2021/08/01 12:29:44;;;;;;;15.98;5.90;;;;;;;;;;5101125;28;20035;-84
2021/08/01 12:32:30;;;;;;;11.65;5.38;;;;;;;;;;5100795;28;20368;-83
2021/08/01 12:35:07;;;;;;;12.07;5.57;;;;;;;;;;5101164;28;20048;-84
2021/08/01 12:37:43;;;;;;;17.23;5.43;;;;;;;;;;5100813;28;20417;-84
2021/08/01 12:40:10;;;;;;;16.48;5.38;;;;;;;;;;5100508;28;20024;-84
2021/08/01 12:42:48;;;;;;;15.18;5.28;;;;;;;;;;5100625;28;20099;-84
2021/08/01 12:45:14;;;;;;;11.93;5.32;;;;;;;;;;5100563;28;20441;-84
2021/08/01 12:47:40;;;;;;;13.68;5.50;;;;;;;;;;5100643;28;20406;-84
2021/08/01 12:50:07;;;;;;;11.45;5.25;;;;;;;;;;5100251;28;20052;-84
2021/08/01 12:52:33;;;;;;;13.27;5.70;;;;;;;;;;5100401;28;20031;-83
2021/08/01 12:54:59;;;;;;;12.00;5.35;;;;;;;;;;5082640;28;20115;-83
2021/08/01 12:57:25;;;;;;;10.90;5.57;;;;;;;;;;5099915;28;20533;-84
2021/08/01 13:00:07;;;;;;;10.85;5.57;;;;;;;;;;5100001;28;20028;-84
2021/08/01 13:02:33;;;;;;;14.35;5.10;;;;;;;;;;5082401;28;20348;-84
2021/08/01 13:04:59;;;;;;;16.83;5.93;;;;;;;;;;5100405;28;20047;-83
2021/08/01 13:07:25;;;;;;;10.55;5.32;;;;;;;;;;5082305;28;20032;-84
2021/08/01 13:10:01;;;;;;;15.05;5.57;;;;;;;;;;5100128;28;20099;-84
2021/08/01 13:12:27;;;;;;;43.05;7.53;;;;;;;;;;5099728;28;20024;-84
2021/08/01 13:14:53;;;;;;;37.20;6.10;;;;;;;;;;5100251;28;20023;-84
2021/08/01 13:17:39;;;;;;;41.50;6.25;;;;;;;;;;5100054;28;20032;-84
2021/08/01 13:20:05;;;;;;;18.30;5.05;;;;;;;;;;5100326;28;20032;-84
2021/08/01 13:22:35;;;;;;;20.48;4.32;;;;;;;;;;5081982;28;20413;-84
2021/08/01 13:25:01;;;;;;;17.60;4.23;;;;;;;;;;5099834;28;20040;-84
2021/08/01 13:27:29;;;;;;;20.00;4.32;;;;;;;;;;5099931;28;20539;-83
2021/08/01 13:30:14;;;;;;;20.30;4.45;;;;;;;;;;5099828;28;20035;-84
2021/08/01 13:32:41;;;;;;;24.80;3.58;;;;;;;;;;5081719;28;20156;-83
2021/08/01 13:35:16;;;;;;;27.48;5.03;;;;;;;;;;5081705;28;20031;-83
2021/08/01 13:37:43;;;;;;;20.77;3.55;;;;;;;;;;5081725;28;20016;-84
2021/08/01 13:40:09;;;;;;;24.63;3.63;;;;;;;;;;5099707;28;20028;-84
2021/08/01 13:42:48;;;;;;;27.48;4.13;;;;;;;;;;5099529;28;20020;-84
2021/08/01 13:45:15;;;;;;;25.33;4.13;;;;;;;;;;5099496;28;20049;-84
2021/08/01 13:47:48;;;;;;;21.58;3.85;;;;;;;;;;5099354;28;20110;-84
2021/08/01 13:50:15;;;;;;;21.65;3.67;;;;;;;;;;5099295;28;20071;-84
2021/08/01 13:52:49;;;;;;;21.92;3.90;;;;;;;;;;5099317;28;20020;-84
2021/08/01 13:55:16;;;;;;;14.65;3.58;;;;;;;;;;5081337;28;20024;-84
2021/08/01 13:57:42;;;;;;;15.88;3.10;;;;;;;;;;5099216;28;20020;-84
2021/08/01 14:00:10;;;;;;;12.82;3.60;;;;;;;;;;5081413;28;20318;-84
2021/08/01 14:02:36;;;;;;;20.48;3.75;;;;;;;;;;5099416;28;20016;-84
2021/08/01 14:05:03;;;;;;;17.02;3.50;;;;;;;;;;5081152;28;20032;-83
2021/08/01 14:07:29;;;;;;;14.38;3.47;;;;;;;;;;5098951;28;20020;-84
2021/08/01 14:09:55;;;;;;;16.35;3.17;;;;;;;;;;5099124;28;20020;-84
2021/08/01 14:12:22;;;;;;;13.65;3.88;;;;;;;;;;5080908;28;20036;-84
2021/08/01 14:14:49;;;;;;;10.02;3.45;;;;;;;;;;5098775;28;20111;-82
2021/08/01 14:17:15;;;;;;;13.65;3.25;;;;;;;;;;5099116;28;20394;-84
2021/08/01 14:19:41;;;;;;;18.88;3.28;;;;;;;;;;5098777;28;20448;-84
2021/08/01 14:22:08;;;;;;;17.50;3.72;;;;;;;;;;5080532;28;20028;-84
2021/08/01 14:24:34;;;;;;;16.67;3.65;;;;;;;;;;5098480;28;20428;-84
2021/08/01 14:27:01;;;;;;;12.80;3.65;;;;;;;;;;5080771;28;20032;-84
2021/08/01 14:29:30;;;;;;;19.55;3.75;;;;;;;;;;5098656;28;20108;-84
2021/08/01 14:31:58;;;;;;;13.65;3.50;;;;;;;;;;5098586;28;20024;-84
2021/08/01 14:34:25;;;;;;;12.70;4.40;;;;;;;;;;5080512;28;20055;-84
2021/08/01 14:36:54;;;;;;;14.40;4.00;;;;;;;;;;5080564;28;20024;-84
2021/08/01 14:39:21;;;;;;;14.40;3.78;;;;;;;;;;5098079;28;20054;-84
2021/08/01 14:41:48;;;;;;;15.50;4.30;;;;;;;;;;5098383;28;20031;-84
2021/08/01 14:44:16;;;;;;;13.30;3.58;;;;;;;;;;5098233;28;20351;-84
2021/08/01 14:46:42;;;;;;;12.50;4.35;;;;;;;;;;5098417;28;20028;-84